createdAt,value
2023-01-02T00:00:20.851Z,0
2023-01-02T00:05:17.203Z,0
2023-01-02T00:10:17.157Z,0
2023-01-02T00:15:16.996Z,0
2023-01-02T00:20:17.341Z,0
2023-01-02T00:25:17.025Z,0
2023-01-02T00:30:17.500Z,0
2023-01-02T00:35:17.245Z,0
2023-01-02T00:40:17.247Z,0
2023-01-02T00:45:17.098Z,0
2023-01-02T00:50:17.201Z,0
2023-01-02T00:55:17.314Z,0
2023-01-02T01:00:23.687Z,0
2023-01-02T01:05:17.556Z,0
2023-01-02T01:10:18.049Z,0
2023-01-02T01:15:17.158Z,0
2023-01-02T01:20:17.395Z,0
2023-01-02T01:25:17.236Z,0
2023-01-02T01:30:17.461Z,0
2023-01-02T01:35:17.418Z,0
2023-01-02T01:40:17.473Z,0
2023-01-02T01:45:17.207Z,0
2023-01-02T01:50:17.643Z,0
2023-01-02T01:55:17.271Z,0
2023-01-02T02:00:17.404Z,0
2023-01-02T02:05:18.843Z,0
2023-01-02T02:10:17.501Z,0
2023-01-02T02:15:17.363Z,0
2023-01-02T02:20:17.840Z,0
2023-01-02T02:25:17.298Z,0
2023-01-02T02:30:17.672Z,0
2023-01-02T02:35:17.592Z,0
2023-01-02T02:40:17.769Z,0
2023-01-02T02:45:17.392Z,0
2023-01-02T02:50:17.821Z,0
2023-01-02T02:55:17.455Z,0
2023-01-02T03:00:18.516Z,0
2023-01-02T03:05:17.509Z,0
2023-01-02T03:10:17.476Z,0
2023-01-02T03:15:17.563Z,0
2023-01-02T03:20:17.584Z,0
2023-01-02T03:25:17.487Z,0
2023-01-02T03:30:17.564Z,0
2023-01-02T03:35:17.857Z,0
2023-01-02T03:40:17.649Z,0
2023-01-02T03:45:17.602Z,0
2023-01-02T03:50:17.865Z,0
2023-01-02T03:55:17.540Z,0
2023-01-02T04:00:17.935Z,0
2023-01-02T04:05:17.668Z,0
2023-01-02T04:10:18.043Z,0
2023-01-02T04:15:17.827Z,0
2023-01-02T04:20:18.195Z,0
2023-01-02T04:25:17.718Z,0
2023-01-02T04:30:17.755Z,0
2023-01-02T04:35:17.776Z,0
2023-01-02T04:40:17.862Z,0
2023-01-02T04:45:17.725Z,0
2023-01-02T04:50:18.233Z,0
2023-01-02T04:55:17.911Z,0
2023-01-02T05:00:16.759Z,0
2023-01-02T05:05:16.887Z,0
2023-01-02T05:10:16.971Z,0
2023-01-02T05:15:16.854Z,0
2023-01-02T05:20:17.156Z,0
2023-01-02T05:25:16.820Z,0
2023-01-02T05:30:17.095Z,0
2023-01-02T05:35:16.931Z,0
2023-01-02T05:40:16.920Z,0
2023-01-02T05:45:16.907Z,0
2023-01-02T05:50:17.115Z,0
2023-01-02T05:55:17.348Z,0
2023-01-02T06:00:17.049Z,0
2023-01-02T06:05:17.675Z,0
2023-01-02T06:10:16.976Z,0
2023-01-02T06:15:16.942Z,0
2023-01-02T06:20:17.495Z,0
2023-01-02T06:25:17.219Z,0
2023-01-02T06:30:17.933Z,0
2023-01-02T06:35:17.130Z,0
2023-01-02T06:40:17.253Z,0
2023-01-02T06:45:16.976Z,0
2023-01-02T06:50:17.176Z,0
2023-01-02T06:55:16.985Z,0
2023-01-02T07:00:17.139Z,0
2023-01-02T07:05:22.675Z,0
2023-01-02T07:10:17.114Z,0
2023-01-02T07:15:17.327Z,0
2023-01-02T07:20:17.502Z,0
2023-01-02T07:25:17.099Z,0
2023-01-02T07:30:17.456Z,0
2023-01-02T07:35:17.327Z,0
2023-01-02T07:40:17.234Z,0
2023-01-02T07:45:17.049Z,0
2023-01-02T07:50:17.840Z,0
2023-01-02T07:55:17.200Z,0
2023-01-02T08:00:17.274Z,0
2023-01-02T08:05:17.481Z,0
2023-01-02T08:10:17.290Z,0
2023-01-02T08:15:17.346Z,0
2023-01-02T08:20:17.403Z,0
2023-01-02T08:25:17.504Z,0
2023-01-02T08:30:17.263Z,0
2023-01-02T08:35:17.550Z,0
2023-01-02T08:40:19.725Z,0
2023-01-02T08:45:17.517Z,0
2023-01-02T08:50:17.565Z,0
2023-01-02T08:55:17.356Z,0
2023-01-02T09:00:17.645Z,0
2023-01-02T09:05:17.439Z,0
2023-01-02T09:10:17.551Z,0
2023-01-02T09:15:17.330Z,0
2023-01-02T09:20:17.500Z,0
2023-01-02T09:25:23.718Z,0
2023-01-02T09:30:17.435Z,0
2023-01-02T09:35:17.626Z,0
2023-01-02T09:40:17.729Z,0
2023-01-02T09:45:17.408Z,0
2023-01-02T09:50:17.922Z,0
2023-01-02T09:55:17.464Z,0
2023-01-02T10:00:17.589Z,0
2023-01-02T10:05:17.510Z,0
2023-01-02T10:10:17.740Z,0
2023-01-02T10:15:17.523Z,0
2023-01-02T10:20:23.612Z,0
2023-01-02T10:25:17.567Z,0
2023-01-02T10:30:17.690Z,0
2023-01-02T10:35:17.745Z,0
2023-01-02T10:40:17.699Z,0
2023-01-02T10:45:17.768Z,0
2023-01-02T10:50:17.804Z,0
2023-01-02T10:55:17.624Z,0
2023-01-02T11:00:22.597Z,0
2023-01-02T11:05:17.997Z,0
2023-01-02T11:10:17.740Z,0
2023-01-02T11:15:17.660Z,0
2023-01-02T11:20:18.125Z,0
2023-01-02T11:25:19.723Z,0
2023-01-02T11:30:18.131Z,0
2023-01-02T11:35:17.812Z,0
2023-01-02T11:40:18.876Z,0
2023-01-02T11:45:17.754Z,0
2023-01-02T11:50:18.342Z,0
2023-01-02T11:55:17.916Z,0
2023-01-02T12:00:18.226Z,0
2023-01-02T12:05:18.150Z,0
2023-01-02T12:10:17.991Z,0
2023-01-02T12:15:17.952Z,3
2023-01-02T12:20:18.433Z,7
2023-01-02T12:25:18.006Z,9
2023-01-02T12:30:18.018Z,13
2023-01-02T12:35:17.996Z,23
2023-01-02T12:40:17.991Z,37
2023-01-02T12:45:17.909Z,51
2023-01-02T12:50:18.407Z,64
2023-01-02T12:55:17.951Z,64
2023-01-02T13:00:18.268Z,71
2023-01-02T13:05:18.151Z,55
2023-01-02T13:10:18.102Z,59
2023-01-02T13:15:18.239Z,65
2023-01-02T13:20:18.354Z,74
2023-01-02T13:25:18.006Z,75
2023-01-02T13:30:20.207Z,61
2023-01-02T13:35:18.582Z,58
2023-01-02T13:40:18.095Z,68
2023-01-02T13:45:18.220Z,89
2023-01-02T13:50:18.184Z,94
2023-01-02T13:55:18.060Z,101
2023-01-02T14:00:18.252Z,111
2023-01-02T14:05:18.605Z,122
2023-01-02T14:10:18.644Z,143
2023-01-02T14:15:16.380Z,182
2023-01-02T14:20:16.338Z,147
2023-01-02T14:25:16.391Z,145
2023-01-02T14:30:16.304Z,156
2023-01-02T14:35:16.287Z,139
2023-01-02T14:40:17.102Z,138
2023-01-02T14:45:16.361Z,127
2023-01-02T14:50:16.641Z,135
2023-01-02T14:55:16.307Z,158
2023-01-02T15:00:16.412Z,168
2023-01-02T15:05:16.400Z,165
2023-01-02T15:10:16.529Z,149
2023-01-02T15:15:16.299Z,154
2023-01-02T15:20:16.954Z,158
2023-01-02T15:25:16.420Z,156
2023-01-02T15:30:16.438Z,163
2023-01-02T15:35:16.685Z,160
2023-01-02T15:40:16.426Z,156
2023-01-02T15:45:16.387Z,163
2023-01-02T15:50:16.600Z,179
2023-01-02T15:55:16.574Z,179
2023-01-02T16:00:16.499Z,181
2023-01-02T16:05:16.935Z,184
2023-01-02T16:10:16.491Z,178
2023-01-02T16:15:16.491Z,213
2023-01-02T16:20:16.659Z,237
2023-01-02T16:25:16.880Z,218
2023-01-02T16:30:16.625Z,201
2023-01-02T16:35:16.616Z,166
2023-01-02T16:40:16.584Z,193
2023-01-02T16:45:16.814Z,246
2023-01-02T16:50:16.806Z,216
2023-01-02T16:55:16.546Z,193
2023-01-02T17:00:16.853Z,210
2023-01-02T17:05:16.626Z,225
2023-01-02T17:10:16.608Z,289
2023-01-02T17:15:16.663Z,335
2023-01-02T17:20:16.978Z,256
2023-01-02T17:25:16.665Z,220
2023-01-02T17:30:16.831Z,210
2023-01-02T17:35:16.925Z,277
2023-01-02T17:40:17.015Z,206
2023-01-02T17:45:16.708Z,175
2023-01-02T17:50:16.856Z,158
2023-01-02T17:55:16.952Z,150
2023-01-02T18:00:16.779Z,139
2023-01-02T18:05:17.139Z,138
2023-01-02T18:10:20.536Z,140
2023-01-02T18:15:16.777Z,154
2023-01-02T18:20:17.028Z,183
2023-01-02T18:25:16.835Z,195
2023-01-02T18:30:16.852Z,191
2023-01-02T18:35:47.130Z,148
2023-01-02T18:40:17.896Z,128
2023-01-02T18:45:17.051Z,111
2023-01-02T18:50:23.482Z,107
2023-01-02T18:55:16.874Z,121
2023-01-02T19:00:16.916Z,120
2023-01-02T19:05:17.189Z,123
2023-01-02T19:10:16.981Z,114
2023-01-02T19:15:17.090Z,123
2023-01-02T19:20:17.122Z,112
2023-01-02T19:25:16.946Z,86
2023-01-02T19:30:20.705Z,90
2023-01-02T19:35:17.275Z,106
2023-01-02T19:40:19.716Z,119
2023-01-02T19:45:16.958Z,115
2023-01-02T19:50:17.675Z,107
2023-01-02T19:55:16.975Z,100
2023-01-02T20:00:17.180Z,85
2023-01-02T20:05:21.435Z,62
2023-01-02T20:10:17.607Z,65
2023-01-02T20:15:17.320Z,68
2023-01-02T20:20:17.503Z,51
2023-01-02T20:25:17.304Z,42
2023-01-02T20:30:22.153Z,45
2023-01-02T20:35:17.190Z,38
2023-01-02T20:40:17.387Z,38
2023-01-02T20:45:17.185Z,29
2023-01-02T20:50:17.287Z,23
2023-01-02T20:55:17.322Z,19
2023-01-02T21:00:17.490Z,16
2023-01-02T21:05:17.602Z,13
2023-01-02T21:10:17.347Z,11
2023-01-02T21:15:17.313Z,8
2023-01-02T21:20:17.445Z,5
2023-01-02T21:25:17.610Z,5
2023-01-02T21:30:17.310Z,4
2023-01-02T21:35:17.497Z,0
2023-01-02T21:40:17.455Z,0
2023-01-02T21:45:17.348Z,0
2023-01-02T21:50:17.385Z,0
2023-01-02T21:55:17.360Z,0
2023-01-02T22:00:17.567Z,0
2023-01-02T22:05:17.421Z,0
2023-01-02T22:10:17.691Z,0
2023-01-02T22:15:17.452Z,0
2023-01-02T22:20:17.736Z,0
2023-01-02T22:25:17.428Z,0
2023-01-02T22:30:23.014Z,0
2023-01-02T22:35:17.629Z,0
2023-01-02T22:40:17.947Z,0
2023-01-02T22:45:17.452Z,0
2023-01-02T22:50:17.746Z,0
2023-01-02T22:55:17.500Z,0
2023-01-02T23:00:17.710Z,0
2023-01-02T23:05:17.798Z,0
2023-01-02T23:10:17.610Z,0
2023-01-02T23:15:17.699Z,0
2023-01-02T23:20:17.766Z,0
2023-01-02T23:25:17.584Z,0
2023-01-02T23:30:17.670Z,0
2023-01-02T23:35:18.026Z,0
2023-01-02T23:40:17.744Z,0
2023-01-02T23:45:17.790Z,0
2023-01-02T23:50:17.932Z,0
2023-01-02T23:55:18.073Z,0
